createdAt,value
2023-04-25T00:00:03.268Z,0.45
2023-04-25T00:01:03.283Z,0.39
2023-04-25T00:02:03.283Z,0.42
2023-04-25T00:03:03.423Z,0.57
2023-04-25T00:04:03.345Z,0.31
2023-04-25T00:05:03.569Z,0.21
2023-04-25T00:06:03.278Z,0.27
2023-04-25T00:07:03.316Z,0.49
2023-04-25T00:08:03.304Z,0.35
2023-04-25T00:09:03.342Z,0.43
2023-04-25T00:10:03.355Z,0.44
2023-04-25T00:11:03.375Z,0.33
2023-04-25T00:12:03.546Z,0.38
2023-04-25T00:13:03.451Z,0.24
2023-04-25T00:14:03.524Z,0.40
2023-04-25T00:15:03.513Z,0.29
2023-04-25T00:16:03.574Z,0.24
2023-04-25T00:17:03.536Z,0.22
2023-04-25T00:18:03.650Z,0.30
2023-04-25T00:19:03.647Z,0.59
2023-04-25T00:20:03.619Z,0.52
2023-04-25T00:21:03.655Z,0.54
2023-04-25T00:22:03.733Z,0.21
2023-04-25T00:23:03.696Z,0.20
2023-04-25T00:24:03.783Z,0.29
2023-04-25T00:25:03.785Z,0.21
2023-04-25T00:26:03.788Z,0.40
2023-04-25T00:27:03.799Z,0.23
2023-04-25T00:28:03.853Z,0.39
2023-04-25T00:29:03.900Z,0.36
2023-04-25T00:30:03.918Z,0.40
2023-04-25T00:31:03.956Z,0.25
2023-04-25T00:32:04.033Z,0.42
2023-04-25T00:33:04.025Z,0.35
2023-04-25T00:34:04.110Z,0.57
2023-04-25T00:35:04.137Z,0.24
2023-04-25T00:36:04.183Z,0.32
2023-04-25T00:37:04.282Z,0.45
2023-04-25T00:38:04.316Z,0.34
2023-04-25T00:39:04.234Z,0.25
2023-04-25T00:40:04.255Z,0.22
2023-04-25T00:41:04.249Z,0.30
2023-04-25T00:42:04.380Z,0.22
2023-04-25T00:43:04.317Z,0.36
2023-04-25T00:44:04.359Z,0.13
2023-04-25T00:45:04.387Z,0.30
2023-04-25T00:46:04.435Z,0.28
2023-04-25T00:47:04.668Z,0.35
2023-04-25T00:48:04.485Z,0.27
2023-04-25T00:49:04.557Z,0.35
2023-04-25T00:50:04.578Z,0.22
2023-04-25T00:51:04.637Z,0.36
2023-04-25T00:52:04.572Z,0.30
2023-04-25T00:53:04.592Z,0.25
2023-04-25T00:54:04.654Z,0.27
2023-04-25T00:55:04.773Z,0.25
2023-04-25T00:56:04.881Z,0.36
2023-04-25T00:57:04.716Z,0.31
2023-04-25T00:58:04.784Z,0.27
2023-04-25T00:59:04.780Z,0.25
2023-04-25T01:00:04.785Z,0.32
2023-04-25T01:01:04.910Z,0.25
2023-04-25T01:02:04.864Z,0.31
2023-04-25T01:03:05.034Z,0.39
2023-04-25T01:04:05.193Z,0.24
2023-04-25T01:05:05.001Z,0.26
2023-04-25T01:06:04.977Z,0.41
2023-04-25T01:07:05.045Z,0.20
2023-04-25T01:08:05.171Z,0.50
2023-04-25T01:09:05.105Z,0.23
2023-04-25T01:10:05.109Z,0.37
2023-04-25T01:11:05.140Z,0.11
2023-04-25T01:12:05.191Z,0.20
2023-04-25T01:13:05.290Z,0.07
2023-04-25T01:14:05.263Z,0.51
2023-04-25T01:15:05.250Z,0.26
2023-04-25T01:16:05.291Z,0.33
2023-04-25T01:17:05.347Z,0.21
2023-04-25T01:18:05.435Z,0.23
2023-04-25T01:19:05.378Z,0.35
2023-04-25T01:20:05.453Z,0.48
2023-04-25T01:21:05.454Z,0.45
2023-04-25T01:22:05.482Z,0.29
2023-04-25T01:23:05.502Z,0.25
2023-04-25T01:24:05.570Z,0.31
2023-04-25T01:25:05.576Z,0.22
2023-04-25T01:26:05.628Z,0.25
2023-04-25T01:27:05.745Z,0.25
2023-04-25T01:28:05.690Z,0.53
2023-04-25T01:29:05.707Z,0.23
2023-04-25T01:30:05.781Z,0.26
2023-04-25T01:31:05.796Z,0.35
2023-04-25T01:32:05.854Z,0.42
2023-04-25T01:33:05.891Z,0.28
2023-04-25T01:34:05.887Z,0.27
2023-04-25T01:35:05.896Z,0.32
2023-04-25T01:36:05.953Z,0.37
2023-04-25T01:37:05.967Z,0.24
2023-04-25T01:38:06.043Z,0.22
2023-04-25T01:39:06.024Z,0.36
2023-04-25T01:40:06.139Z,0.34
2023-04-25T01:41:06.092Z,0.44
2023-04-25T01:42:06.165Z,0.17
2023-04-25T01:43:06.183Z,0.17
2023-04-25T01:44:06.234Z,0.30
2023-04-25T01:45:06.219Z,0.43
2023-04-25T01:46:06.310Z,0.41
2023-04-25T01:47:06.317Z,0.31
2023-04-25T01:48:06.491Z,0.24
2023-04-25T01:49:06.352Z,0.30
2023-04-25T01:50:06.424Z,0.33
2023-04-25T01:51:06.428Z,0.32
2023-04-25T01:52:06.419Z,0.36
2023-04-25T01:53:06.474Z,0.40
2023-04-25T01:54:06.653Z,0.19
2023-04-25T01:55:06.560Z,0.21
2023-04-25T01:56:06.604Z,0.26
2023-04-25T01:57:06.688Z,0.11
2023-04-25T01:58:06.692Z,0.49
2023-04-25T01:59:06.692Z,0.38
2023-04-25T02:00:06.791Z,0.62
2023-04-25T02:01:06.778Z,0.28
2023-04-25T02:02:06.804Z,0.34
2023-04-25T02:03:07.018Z,0.28
2023-04-25T02:04:07.082Z,0.21
2023-04-25T02:05:06.885Z,0.23
2023-04-25T02:06:06.967Z,0.51
2023-04-25T02:07:06.979Z,0.32
2023-04-25T02:08:07.040Z,0.26
2023-04-25T02:09:07.249Z,0.23
2023-04-25T02:10:07.083Z,0.50
2023-04-25T02:11:07.154Z,0.49
2023-04-25T02:12:07.146Z,0.26
2023-04-25T02:13:07.240Z,0.31
2023-04-25T02:14:07.304Z,0.33
2023-04-25T02:15:07.359Z,0.23
2023-04-25T02:16:07.380Z,0.32
2023-04-25T02:17:07.483Z,0.42
2023-04-25T02:18:07.575Z,0.71
2023-04-25T02:19:07.423Z,0.31
2023-04-25T02:20:07.427Z,0.18
2023-04-25T02:21:07.492Z,0.17
2023-04-25T02:22:07.509Z,0.27
2023-04-25T02:23:07.559Z,0.41
2023-04-25T02:24:07.635Z,0.19
2023-04-25T02:25:07.632Z,0.26
2023-04-25T02:26:07.703Z,0.44
2023-04-25T02:27:07.701Z,0.17
2023-04-25T02:28:07.762Z,0.15
2023-04-25T02:29:07.751Z,0.25
2023-04-25T02:30:07.837Z,0.50
2023-04-25T02:31:07.866Z,0.22
2023-04-25T02:32:08.762Z,0.36
2023-04-25T02:33:08.028Z,0.26
2023-04-25T02:34:07.949Z,0.39
2023-04-25T02:35:08.009Z,0.33
2023-04-25T02:36:08.072Z,0.51
2023-04-25T02:37:08.061Z,0.29
2023-04-25T02:38:08.131Z,0.31
2023-04-25T02:39:08.134Z,0.11
2023-04-25T02:40:08.177Z,0.19
2023-04-25T02:41:08.280Z,0.35
2023-04-25T02:42:08.307Z,0.38
2023-04-25T02:43:08.326Z,0.16
2023-04-25T02:44:08.380Z,0.35
2023-04-25T02:45:08.396Z,0.42
2023-04-25T02:46:08.445Z,0.30
2023-04-25T02:47:08.528Z,0.32
2023-04-25T02:48:08.531Z,0.25
2023-04-25T02:49:08.554Z,0.58
2023-04-25T02:50:08.608Z,0.29
2023-04-25T02:51:08.614Z,0.28
2023-04-25T02:52:08.730Z,0.23
2023-04-25T02:53:08.734Z,0.35
2023-04-25T02:54:08.736Z,0.31
2023-04-25T02:55:08.959Z,0.17
2023-04-25T02:56:08.816Z,0.36
2023-04-25T02:57:08.866Z,0.25
2023-04-25T02:58:08.921Z,0.34
2023-04-25T02:59:08.943Z,0.58
2023-04-25T03:00:09.001Z,0.19
2023-04-25T03:01:09.135Z,0.21
2023-04-25T03:02:09.100Z,0.36
2023-04-25T03:03:09.288Z,0.22
2023-04-25T03:04:09.114Z,0.22
2023-04-25T03:05:09.184Z,0.18
2023-04-25T03:06:09.190Z,0.18
2023-04-25T03:07:09.213Z,0.20
2023-04-25T03:08:09.301Z,0.31
2023-04-25T03:09:09.345Z,0.17
2023-04-25T03:10:09.334Z,0.26
2023-04-25T03:11:09.364Z,0.19
2023-04-25T03:12:09.427Z,0.32
2023-04-25T03:13:09.442Z,0.18
2023-04-25T03:14:09.507Z,0.28
2023-04-25T03:15:09.562Z,0.34
2023-04-25T03:16:09.642Z,0.30
2023-04-25T03:17:09.614Z,0.32
2023-04-25T03:18:09.709Z,0.30
2023-04-25T03:19:09.679Z,0.21
2023-04-25T03:20:09.795Z,0.31
2023-04-25T03:21:09.802Z,0.42
2023-04-25T03:22:09.818Z,0.24
2023-04-25T03:23:09.868Z,0.25
2023-04-25T03:24:09.930Z,0.33
2023-04-25T03:25:09.949Z,0.18
2023-04-25T03:26:10.085Z,0.17
2023-04-25T03:27:09.992Z,0.21
2023-04-25T03:28:10.165Z,0.17
2023-04-25T03:29:10.162Z,0.24
2023-04-25T03:30:10.166Z,0.30
2023-04-25T03:31:10.183Z,0.30
2023-04-25T03:32:10.275Z,0.17
2023-04-25T03:33:10.385Z,0.15
2023-04-25T03:34:10.401Z,0.27
2023-04-25T03:35:10.347Z,0.33
2023-04-25T03:36:10.376Z,0.31
2023-04-25T03:37:10.429Z,0.21
2023-04-25T03:38:10.422Z,0.27
2023-04-25T03:39:10.557Z,0.48
2023-04-25T03:40:10.552Z,0.33
2023-04-25T03:41:10.718Z,0.34
2023-04-25T03:42:10.634Z,0.17
2023-04-25T03:43:10.767Z,0.20
2023-04-25T03:44:10.697Z,0.39
2023-04-25T03:45:10.731Z,0.30
2023-04-25T03:46:10.766Z,0.27
2023-04-25T03:47:10.845Z,0.30
2023-04-25T03:48:10.859Z,0.53
2023-04-25T03:49:10.915Z,0.19
2023-04-25T03:50:10.986Z,0.27
2023-04-25T03:51:10.965Z,0.27
2023-04-25T03:52:11.051Z,0.38
2023-04-25T03:53:11.155Z,0.19
2023-04-25T03:54:11.165Z,0.39
2023-04-25T03:55:11.153Z,0.29
2023-04-25T03:56:11.244Z,0.64
2023-04-25T03:57:11.297Z,0.22
2023-04-25T03:58:11.279Z,0.25
2023-04-25T03:59:11.334Z,0.35
2023-04-25T04:00:11.397Z,0.30
2023-04-25T04:01:11.419Z,0.13
2023-04-25T04:02:11.612Z,0.31
2023-04-25T04:03:11.686Z,0.28
2023-04-25T04:04:11.754Z,0.23
2023-04-25T04:05:11.707Z,0.45
2023-04-25T04:06:11.651Z,0.37
2023-04-25T04:07:11.705Z,0.38
2023-04-25T04:08:11.704Z,0.35
2023-04-25T04:09:11.742Z,0.47
2023-04-25T04:10:11.783Z,0.49
2023-04-25T04:11:11.838Z,0.36
2023-04-25T04:12:11.854Z,0.37
2023-04-25T04:13:11.921Z,0.39
2023-04-25T04:14:11.907Z,0.61
2023-04-25T04:15:11.971Z,0.60
2023-04-25T04:16:12.229Z,0.48
2023-04-25T04:17:12.110Z,0.37
2023-04-25T04:18:12.223Z,0.41
2023-04-25T04:19:12.155Z,0.59
2023-04-25T04:20:12.177Z,0.58
2023-04-25T04:21:12.226Z,0.51
2023-04-25T04:22:12.280Z,0.52
2023-04-25T04:23:12.427Z,0.56
2023-04-25T04:24:12.352Z,0.33
2023-04-25T04:25:12.352Z,0.39
2023-04-25T04:26:12.400Z,0.49
2023-04-25T04:27:12.461Z,0.45
2023-04-25T04:28:12.457Z,0.49
2023-04-25T04:29:12.523Z,0.53
2023-04-25T04:30:12.530Z,0.49
2023-04-25T04:31:12.587Z,0.86
2023-04-25T04:32:12.587Z,0.70
2023-04-25T04:33:12.674Z,0.67
2023-04-25T04:34:12.755Z,0.74
2023-04-25T04:35:12.902Z,0.54
2023-04-25T04:36:12.761Z,0.48
2023-04-25T04:37:12.823Z,0.60
2023-04-25T04:38:12.894Z,0.46
2023-04-25T04:39:12.971Z,0.43
2023-04-25T04:40:13.023Z,0.49
2023-04-25T04:41:13.022Z,0.56
2023-04-25T04:42:13.069Z,0.48
2023-04-25T04:43:13.119Z,0.75
2023-04-25T04:44:13.243Z,0.52
2023-04-25T04:45:13.244Z,0.44
2023-04-25T04:46:13.299Z,0.58
2023-04-25T04:47:13.374Z,0.51
2023-04-25T04:48:13.408Z,0.39
2023-04-25T04:49:13.415Z,0.64
2023-04-25T04:50:13.487Z,0.22
2023-04-25T04:51:13.544Z,0.41
2023-04-25T04:52:13.567Z,0.52
2023-04-25T04:53:13.625Z,0.60
2023-04-25T04:54:13.657Z,0.59
2023-04-25T04:55:13.690Z,0.65
2023-04-25T04:56:13.775Z,0.49
2023-04-25T04:57:13.832Z,0.70
2023-04-25T04:58:13.890Z,0.47
2023-04-25T04:59:13.869Z,0.74
2023-04-25T05:00:14.003Z,0.52
2023-04-25T05:01:14.008Z,0.76
2023-04-25T05:02:13.986Z,0.57
2023-04-25T05:03:14.156Z,0.85
2023-04-25T05:04:14.137Z,1.08
2023-04-25T05:05:13.909Z,0.94
2023-04-25T05:06:13.899Z,0.95
2023-04-25T05:07:13.898Z,0.85
2023-04-25T05:08:13.911Z,1.02
2023-04-25T05:09:13.975Z,1.39
2023-04-25T05:10:14.062Z,0.94
2023-04-25T05:11:14.137Z,0.98
2023-04-25T05:12:14.207Z,0.87
2023-04-25T05:13:14.090Z,1.01
2023-04-25T05:14:14.099Z,1.41
2023-04-25T05:15:14.174Z,1.60
2023-04-25T05:16:14.263Z,1.31
2023-04-25T05:17:14.241Z,1.56
2023-04-25T05:18:14.274Z,2.01
2023-04-25T05:19:14.300Z,1.93
2023-04-25T05:20:14.328Z,1.69
2023-04-25T05:21:14.361Z,1.53
2023-04-25T05:22:14.361Z,1.74
2023-04-25T05:23:14.322Z,1.19
2023-04-25T05:24:14.329Z,0.86
2023-04-25T05:25:14.387Z,1.12
2023-04-25T05:26:14.427Z,1.18
2023-04-25T05:27:14.458Z,1.12
2023-04-25T05:28:14.461Z,1.04
2023-04-25T05:29:14.521Z,0.91
2023-04-25T05:30:17.794Z,1.21
2023-04-25T05:31:14.554Z,0.93
2023-04-25T05:32:14.736Z,0.85
2023-04-25T05:33:14.548Z,1.50
2023-04-25T05:34:14.528Z,0.96
2023-04-25T05:35:14.645Z,1.08
2023-04-25T05:36:14.512Z,1.15
2023-04-25T05:37:14.532Z,0.83
2023-04-25T05:38:14.471Z,1.18
2023-04-25T05:39:14.754Z,1.31
2023-04-25T05:40:14.619Z,2.66
2023-04-25T05:41:14.448Z,1.29
2023-04-25T05:42:14.867Z,1.52
2023-04-25T05:43:14.799Z,1.56
2023-04-25T05:44:14.430Z,1.96
2023-04-25T05:45:15.195Z,1.78
2023-04-25T05:46:14.494Z,1.56
2023-04-25T05:47:14.867Z,1.32
2023-04-25T05:48:14.512Z,2.02
2023-04-25T05:49:14.399Z,1.51
2023-04-25T05:50:14.400Z,1.48
2023-04-25T05:51:14.376Z,1.74
2023-04-25T05:52:14.388Z,1.21
2023-04-25T05:53:14.430Z,1.08
2023-04-25T05:54:15.206Z,1.33
2023-04-25T05:55:14.349Z,1.19
2023-04-25T05:56:14.505Z,1.51
2023-04-25T05:57:14.414Z,1.50
2023-04-25T05:58:14.328Z,1.09
2023-04-25T05:59:14.839Z,1.48
2023-04-25T06:00:14.332Z,1.63
2023-04-25T06:01:14.331Z,1.49
2023-04-25T06:02:14.335Z,1.09
2023-04-25T06:03:15.857Z,1.12
2023-04-25T06:04:14.595Z,1.42
2023-04-25T06:05:14.554Z,1.38
2023-04-25T06:06:14.357Z,3.14
2023-04-25T06:07:14.258Z,1.25
2023-04-25T06:08:14.266Z,1.02
2023-04-25T06:09:14.613Z,1.64
2023-04-25T06:10:14.195Z,1.36
2023-04-25T06:11:14.302Z,1.96
2023-04-25T06:12:14.387Z,1.19
2023-04-25T06:13:14.319Z,1.28
2023-04-25T06:14:14.325Z,1.29
2023-04-25T06:15:27.187Z,1.34
2023-04-25T06:16:15.227Z,1.17
2023-04-25T06:17:14.229Z,1.20
2023-04-25T06:18:14.310Z,1.12
2023-04-25T06:19:14.261Z,1.36
2023-04-25T06:20:14.187Z,1.18
2023-04-25T06:21:14.222Z,1.18
2023-04-25T06:22:14.154Z,2.08
2023-04-25T06:23:14.205Z,2.42
2023-04-25T06:24:14.367Z,1.66
2023-04-25T06:25:14.134Z,1.96
2023-04-25T06:26:14.351Z,2.08
2023-04-25T06:27:16.440Z,1.81
2023-04-25T06:28:14.149Z,1.55
2023-04-25T06:29:14.095Z,1.27
2023-04-25T06:30:14.116Z,1.61
2023-04-25T06:31:14.143Z,1.10
2023-04-25T06:32:14.234Z,1.56
2023-04-25T06:33:14.116Z,1.57
2023-04-25T06:34:14.083Z,1.26
2023-04-25T06:35:14.370Z,1.20
2023-04-25T06:36:14.112Z,1.64
2023-04-25T06:37:14.045Z,1.49
2023-04-25T06:38:14.887Z,1.51
2023-04-25T06:39:14.079Z,1.80
2023-04-25T06:40:14.914Z,1.74
2023-04-25T06:41:14.143Z,2.34
2023-04-25T06:42:14.049Z,1.75
2023-04-25T06:43:14.057Z,1.39
2023-04-25T06:44:14.820Z,1.56
2023-04-25T06:45:14.380Z,1.42
2023-04-25T06:46:14.025Z,1.16
2023-04-25T06:47:13.966Z,1.36
2023-04-25T06:48:14.082Z,1.44
2023-04-25T06:49:13.979Z,1.17
2023-04-25T06:50:14.439Z,1.22
2023-04-25T06:51:14.004Z,1.67
2023-04-25T06:52:13.941Z,1.52
2023-04-25T06:53:14.041Z,2.05
2023-04-25T06:54:13.966Z,1.44
2023-04-25T06:55:14.080Z,1.60
2023-04-25T06:56:14.133Z,1.40
2023-04-25T06:57:13.975Z,1.33
2023-04-25T06:58:13.941Z,1.41
2023-04-25T06:59:13.896Z,1.60
2023-04-25T07:00:13.916Z,1.35
2023-04-25T07:01:13.948Z,1.44
2023-04-25T07:02:14.013Z,1.64
2023-04-25T07:03:14.087Z,1.55
2023-04-25T07:04:14.131Z,1.08
2023-04-25T07:05:13.937Z,1.61
2023-04-25T07:06:13.917Z,1.52
2023-04-25T07:07:13.858Z,1.38
2023-04-25T07:08:13.930Z,1.60
2023-04-25T07:09:13.891Z,1.60
2023-04-25T07:10:13.836Z,1.29
2023-04-25T07:11:13.840Z,1.19
2023-04-25T07:12:13.880Z,0.97
2023-04-25T07:13:13.844Z,1.34
2023-04-25T07:14:14.008Z,1.31
2023-04-25T07:15:13.934Z,0.78
2023-04-25T07:16:14.075Z,1.16
2023-04-25T07:17:13.977Z,1.38
2023-04-25T07:18:14.103Z,1.52
2023-04-25T07:19:14.312Z,1.14
2023-04-25T07:20:14.150Z,1.06
2023-04-25T07:21:14.256Z,1.54
2023-04-25T07:22:14.249Z,1.07
2023-04-25T07:23:14.330Z,1.44
2023-04-25T07:24:14.356Z,1.22
2023-04-25T07:25:14.375Z,1.35
2023-04-25T07:26:14.465Z,0.89
2023-04-25T07:27:14.445Z,1.19
2023-04-25T07:28:14.503Z,1.13
2023-04-25T07:29:14.585Z,1.07
2023-04-25T07:30:14.594Z,1.09
2023-04-25T07:31:14.660Z,1.30
2023-04-25T07:32:14.876Z,1.03
2023-04-25T07:33:14.925Z,1.09
2023-04-25T07:34:14.855Z,1.50
2023-04-25T07:35:14.871Z,1.70
2023-04-25T07:36:14.938Z,2.15
2023-04-25T07:37:15.052Z,1.74
2023-04-25T07:38:15.097Z,1.25
2023-04-25T07:39:15.101Z,1.43
2023-04-25T07:40:15.193Z,1.25
2023-04-25T07:41:15.164Z,1.62
2023-04-25T07:42:15.278Z,1.52
2023-04-25T07:43:15.368Z,1.63
2023-04-25T07:44:15.835Z,1.49
2023-04-25T07:45:15.403Z,1.19
2023-04-25T07:46:15.904Z,1.33
2023-04-25T07:47:15.527Z,1.02
2023-04-25T07:48:15.691Z,1.49
2023-04-25T07:49:15.594Z,1.28
2023-04-25T07:50:15.605Z,1.29
2023-04-25T07:51:15.689Z,1.00
2023-04-25T07:52:15.763Z,1.28
2023-04-25T07:53:15.752Z,1.56
2023-04-25T07:54:16.055Z,1.29
2023-04-25T07:55:16.400Z,2.22
2023-04-25T07:56:15.894Z,1.10
2023-04-25T07:57:15.904Z,1.18
2023-04-25T07:58:17.172Z,1.10
2023-04-25T07:59:15.939Z,1.38
2023-04-25T08:00:18.616Z,1.26
2023-04-25T08:01:15.968Z,1.04
2023-04-25T08:02:16.010Z,0.95
2023-04-25T08:03:16.140Z,1.67
2023-04-25T08:04:16.248Z,1.17
2023-04-25T08:05:16.627Z,1.18
2023-04-25T08:06:16.079Z,0.95
2023-04-25T08:07:15.922Z,1.09
2023-04-25T08:08:15.910Z,1.10
2023-04-25T08:09:16.300Z,1.08
2023-04-25T08:10:15.896Z,1.08
2023-04-25T08:11:15.882Z,1.04
2023-04-25T08:12:15.852Z,1.40
2023-04-25T08:13:15.943Z,0.97
2023-04-25T08:14:16.196Z,1.21
2023-04-25T08:15:15.901Z,1.33
2023-04-25T08:16:15.998Z,0.81
2023-04-25T08:17:15.839Z,0.78
2023-04-25T08:18:17.744Z,1.12
2023-04-25T08:19:15.904Z,1.31
2023-04-25T08:20:16.404Z,0.92
2023-04-25T08:21:15.780Z,1.17
2023-04-25T08:22:15.799Z,0.89
2023-04-25T08:23:15.875Z,0.98
2023-04-25T08:24:15.746Z,1.07
2023-04-25T08:25:15.816Z,0.91
2023-04-25T08:26:15.795Z,1.53
2023-04-25T08:27:15.826Z,1.25
2023-04-25T08:28:15.763Z,0.83
2023-04-25T08:29:16.463Z,1.07
2023-04-25T08:30:16.373Z,1.26
2023-04-25T08:31:15.916Z,1.14
2023-04-25T08:32:15.818Z,1.17
2023-04-25T08:33:15.802Z,1.27
2023-04-25T08:34:15.842Z,1.28
2023-04-25T08:35:15.897Z,1.84
2023-04-25T08:36:24.225Z,0.86
2023-04-25T08:37:17.449Z,1.46
2023-04-25T08:38:15.904Z,1.51
2023-04-25T08:39:15.905Z,1.44
2023-04-25T08:40:15.893Z,1.32
2023-04-25T08:41:15.918Z,1.29
2023-04-25T08:42:15.927Z,1.64
2023-04-25T08:43:15.990Z,1.12
2023-04-25T08:44:15.852Z,1.67
2023-04-25T08:45:15.812Z,1.62
2023-04-25T08:46:15.868Z,1.34
2023-04-25T08:47:15.818Z,1.46
2023-04-25T08:48:15.978Z,1.53
2023-04-25T08:49:15.838Z,1.10
2023-04-25T08:50:16.396Z,1.11
2023-04-25T08:51:15.967Z,1.10
2023-04-25T08:52:16.002Z,1.34
2023-04-25T08:53:16.251Z,1.22
2023-04-25T08:54:33.508Z,1.42
2023-04-25T08:55:17.431Z,1.34
2023-04-25T08:56:16.138Z,1.25
2023-04-25T08:57:16.094Z,1.77
2023-04-25T08:58:16.123Z,1.22
2023-04-25T08:59:16.049Z,1.09
2023-04-25T09:00:16.382Z,1.17
2023-04-25T09:01:16.098Z,0.97
2023-04-25T09:02:16.254Z,1.43
2023-04-25T09:03:16.287Z,1.02
2023-04-25T09:04:16.212Z,1.37
2023-04-25T09:05:16.009Z,1.19
2023-04-25T09:06:16.061Z,0.94
2023-04-25T09:07:16.009Z,0.94
2023-04-25T09:08:16.048Z,0.99
2023-04-25T09:09:16.022Z,1.16
2023-04-25T09:10:16.381Z,1.14
2023-04-25T09:11:15.983Z,0.94
2023-04-25T09:12:15.982Z,1.06
2023-04-25T09:13:16.377Z,1.41
2023-04-25T09:14:15.979Z,1.20
2023-04-25T09:16:15.964Z,0.96
2023-04-25T09:17:15.983Z,1.16
2023-04-25T09:18:15.929Z,0.92
2023-04-25T09:19:16.159Z,0.96
2023-04-25T09:20:15.941Z,0.99
2023-04-25T09:21:15.913Z,0.75
2023-04-25T09:22:16.617Z,1.03
2023-04-25T09:23:15.957Z,1.35
2023-04-25T09:24:15.905Z,0.95
2023-04-25T09:25:16.391Z,1.03
2023-04-25T09:26:15.869Z,1.28
2023-04-25T09:27:17.422Z,0.98
2023-04-25T09:28:15.940Z,1.33
2023-04-25T09:29:15.927Z,1.03
2023-04-25T09:30:15.874Z,0.95
2023-04-25T09:31:15.938Z,1.30
2023-04-25T09:32:18.488Z,1.11
2023-04-25T09:33:16.168Z,1.34
2023-04-25T09:34:16.472Z,0.94
2023-04-25T09:35:16.340Z,1.27
2023-04-25T09:36:16.240Z,1.05
2023-04-25T09:37:23.949Z,1.43
2023-04-25T09:38:16.421Z,1.40
2023-04-25T09:39:17.149Z,1.29
2023-04-25T09:40:19.598Z,1.47
2023-04-25T09:41:17.897Z,0.84
2023-04-25T09:42:17.067Z,1.04
2023-04-25T09:43:16.518Z,0.82
2023-04-25T09:44:16.972Z,0.93
2023-04-25T09:45:16.329Z,1.08
2023-04-25T09:46:16.302Z,1.04
2023-04-25T09:47:16.333Z,1.05
2023-04-25T09:48:16.234Z,0.73
2023-04-25T09:49:17.921Z,0.98
2023-04-25T09:50:16.249Z,1.39
2023-04-25T09:51:19.040Z,1.01
2023-04-25T09:52:16.616Z,1.14
2023-04-25T09:53:16.207Z,1.16
2023-04-25T09:54:16.353Z,0.85
2023-04-25T09:55:17.065Z,0.89
2023-04-25T09:56:16.428Z,0.78
2023-04-25T09:57:17.053Z,0.92
2023-04-25T09:58:16.945Z,0.73
2023-04-25T09:59:16.219Z,0.74
2023-04-25T10:00:16.458Z,0.78
2023-04-25T10:01:16.282Z,1.13
2023-04-25T10:02:16.818Z,1.09
2023-04-25T10:03:16.403Z,0.67
2023-04-25T10:04:16.347Z,0.73
2023-04-25T10:05:16.298Z,1.06
2023-04-25T10:06:16.296Z,0.94
2023-04-25T10:07:16.100Z,0.85
2023-04-25T10:08:16.423Z,0.71
2023-04-25T10:09:16.184Z,1.00
2023-04-25T10:10:16.127Z,0.61
2023-04-25T10:11:16.124Z,0.55
2023-04-25T10:12:16.208Z,0.74
2023-04-25T10:13:16.563Z,0.84
2023-04-25T10:14:17.063Z,0.73
2023-04-25T10:15:16.132Z,0.85
2023-04-25T10:16:16.075Z,0.82
2023-04-25T10:17:16.162Z,0.65
2023-04-25T10:18:16.486Z,0.79
2023-04-25T10:19:16.085Z,0.66
2023-04-25T10:20:18.956Z,0.84
2023-04-25T10:21:16.198Z,1.09
2023-04-25T10:22:18.036Z,0.67
2023-04-25T10:23:17.558Z,0.57
2023-04-25T10:24:16.033Z,1.08
2023-04-25T10:25:16.089Z,0.79
2023-04-25T10:26:16.518Z,0.95
2023-04-25T10:27:16.027Z,0.66
2023-04-25T10:28:16.001Z,0.60
2023-04-25T10:29:15.942Z,0.88
2023-04-25T10:30:17.207Z,1.00
2023-04-25T10:31:16.029Z,0.85
2023-04-25T10:32:16.086Z,0.67
2023-04-25T10:33:16.072Z,0.65
2023-04-25T10:34:16.074Z,0.52
2023-04-25T10:35:19.113Z,0.78
2023-04-25T10:36:15.986Z,0.56
2023-04-25T10:37:18.524Z,0.90
2023-04-25T10:38:16.111Z,0.64
2023-04-25T10:39:16.215Z,0.91
2023-04-25T10:40:16.428Z,0.73
2023-04-25T10:41:16.337Z,0.84
2023-04-25T10:42:16.256Z,0.54
2023-04-25T10:43:16.208Z,0.76
2023-04-25T10:44:16.537Z,0.77
2023-04-25T10:45:16.352Z,0.72
2023-04-25T10:46:16.411Z,0.74
2023-04-25T10:47:16.327Z,0.51
2023-04-25T10:48:16.380Z,0.75
2023-04-25T10:49:16.502Z,0.62
2023-04-25T10:50:16.456Z,0.84
2023-04-25T10:51:16.396Z,0.86
2023-04-25T10:52:16.490Z,0.61
2023-04-25T10:53:16.504Z,0.75
2023-04-25T10:54:16.513Z,0.68
2023-04-25T10:55:16.598Z,0.55
2023-04-25T10:56:16.536Z,0.76
2023-04-25T10:57:18.251Z,0.48
2023-04-25T10:58:16.723Z,0.70
2023-04-25T10:59:16.623Z,0.72
2023-04-25T11:00:16.772Z,0.67
2023-04-25T11:01:16.800Z,0.77
2023-04-25T11:02:17.197Z,0.63
2023-04-25T11:03:17.173Z,0.40
2023-04-25T11:04:17.011Z,0.45
2023-04-25T11:05:17.676Z,0.51
2023-04-25T11:06:17.006Z,0.70
2023-04-25T11:07:17.018Z,0.72
2023-04-25T11:08:16.927Z,0.76
2023-04-25T11:09:17.031Z,0.69
2023-04-25T11:10:18.067Z,0.82
2023-04-25T11:11:17.147Z,0.72
2023-04-25T11:12:17.531Z,0.47
2023-04-25T11:13:17.103Z,0.70
2023-04-25T11:14:17.171Z,0.72
2023-04-25T11:15:17.073Z,0.70
2023-04-25T11:16:23.706Z,0.93
2023-04-25T11:17:19.028Z,0.91
2023-04-25T11:18:17.232Z,0.69
2023-04-25T11:19:17.352Z,0.77
2023-04-25T11:20:17.180Z,0.68
2023-04-25T11:21:17.218Z,0.62
2023-04-25T11:22:17.512Z,0.64
2023-04-25T11:23:17.948Z,0.68
2023-04-25T11:24:17.210Z,0.80
2023-04-25T11:25:17.114Z,0.83
2023-04-25T11:26:17.150Z,0.73
2023-04-25T11:27:17.128Z,0.77
2023-04-25T11:28:17.150Z,0.73
2023-04-25T11:29:17.141Z,0.74
2023-04-25T11:30:17.217Z,0.69
2023-04-25T11:31:17.266Z,0.80
2023-04-25T11:32:17.750Z,0.73
2023-04-25T11:33:17.271Z,0.60
2023-04-25T11:34:17.329Z,0.59
2023-04-25T11:35:17.291Z,0.67
2023-04-25T11:36:17.321Z,0.67
2023-04-25T11:37:17.299Z,1.01
2023-04-25T11:38:17.216Z,0.49
2023-04-25T11:39:17.168Z,0.59
2023-04-25T11:40:17.227Z,0.51
2023-04-25T11:41:17.225Z,0.62
2023-04-25T11:42:17.152Z,0.53
2023-04-25T11:43:17.384Z,0.64
2023-04-25T11:44:17.272Z,0.65
2023-04-25T11:45:17.234Z,0.52
2023-04-25T11:46:17.216Z,0.81
2023-04-25T11:47:17.272Z,0.72
2023-04-25T11:48:17.332Z,0.53
2023-04-25T11:49:17.174Z,0.76
2023-04-25T11:50:17.194Z,0.71
2023-04-25T11:51:17.084Z,0.66
2023-04-25T11:52:17.104Z,0.72
2023-04-25T11:53:20.066Z,0.46
2023-04-25T11:54:17.244Z,0.67
2023-04-25T11:55:17.577Z,0.51
2023-04-25T11:56:17.142Z,0.84
2023-04-25T11:57:17.154Z,1.05
2023-04-25T11:58:17.170Z,0.73
2023-04-25T11:59:17.036Z,0.70
2023-04-25T12:00:19.174Z,0.64
2023-04-25T12:01:17.495Z,0.58
2023-04-25T12:02:18.204Z,0.99
2023-04-25T12:03:17.271Z,0.56
2023-04-25T12:04:17.430Z,0.87
2023-04-25T12:05:30.942Z,0.69
2023-04-25T12:06:18.705Z,0.59
2023-04-25T12:07:17.215Z,0.88
2023-04-25T12:08:17.372Z,0.54
2023-04-25T12:09:17.330Z,0.48
2023-04-25T12:10:17.458Z,0.81
2023-04-25T12:11:18.075Z,0.90
2023-04-25T12:12:18.071Z,0.63
2023-04-25T12:13:18.262Z,0.72
2023-04-25T12:14:17.367Z,0.58
2023-04-25T12:15:17.560Z,1.00
2023-04-25T12:16:17.398Z,0.35
2023-04-25T12:17:17.378Z,0.71
2023-04-25T12:18:17.534Z,0.71
2023-04-25T12:19:17.510Z,0.72
2023-04-25T12:20:17.735Z,0.59
2023-04-25T12:21:17.516Z,0.68
2023-04-25T12:22:17.624Z,0.62
2023-04-25T12:23:17.835Z,0.56
2023-04-25T12:24:17.628Z,0.73
2023-04-25T12:25:17.649Z,0.59
2023-04-25T12:26:17.718Z,0.72
2023-04-25T12:27:18.040Z,0.80
2023-04-25T12:28:18.529Z,0.66
2023-04-25T12:29:17.973Z,0.63
2023-04-25T12:30:17.669Z,0.85
2023-04-25T12:31:17.838Z,0.60
2023-04-25T12:32:18.637Z,0.62
2023-04-25T12:33:17.987Z,0.57
2023-04-25T12:34:17.781Z,0.42
2023-04-25T12:35:17.947Z,0.71
2023-04-25T12:36:17.835Z,0.53
2023-04-25T12:37:17.954Z,0.69
2023-04-25T12:38:18.665Z,0.67
2023-04-25T12:39:17.953Z,0.70
2023-04-25T12:40:17.949Z,0.72
2023-04-25T12:41:17.966Z,0.57
2023-04-25T12:42:18.075Z,0.57
2023-04-25T12:43:17.981Z,0.62
2023-04-25T12:44:18.107Z,0.58
2023-04-25T12:45:18.054Z,0.77
2023-04-25T12:46:18.122Z,0.68
2023-04-25T12:47:18.112Z,0.41
2023-04-25T12:48:19.038Z,0.47
2023-04-25T12:49:19.403Z,0.59
2023-04-25T12:50:18.185Z,0.41
2023-04-25T12:51:18.234Z,0.63
2023-04-25T12:52:18.232Z,0.61
2023-04-25T12:53:18.348Z,0.36
2023-04-25T12:54:18.268Z,0.62
2023-04-25T12:55:18.376Z,0.80
2023-04-25T12:56:18.236Z,0.63
2023-04-25T12:57:18.392Z,0.36
2023-04-25T12:58:18.507Z,0.57
2023-04-25T12:59:18.299Z,0.96
2023-04-25T13:00:18.394Z,0.33
2023-04-25T13:01:18.470Z,0.66
2023-04-25T13:02:18.620Z,0.56
2023-04-25T13:03:18.637Z,0.57
2023-04-25T13:04:18.629Z,0.98
2023-04-25T13:05:18.432Z,0.78
2023-04-25T13:06:18.560Z,0.80
2023-04-25T13:07:18.555Z,0.46
2023-04-25T13:08:18.551Z,0.64
2023-04-25T13:09:18.558Z,0.70
2023-04-25T13:10:18.589Z,0.50
2023-04-25T13:11:18.683Z,0.45
2023-04-25T13:12:18.692Z,0.81
2023-04-25T13:13:18.796Z,0.65
2023-04-25T13:14:18.813Z,0.68
2023-04-25T13:15:18.730Z,0.55
2023-04-25T13:16:18.866Z,0.59
2023-04-25T13:17:18.828Z,0.44
2023-04-25T13:18:18.950Z,0.51
2023-04-25T13:19:18.849Z,0.69